Time;durP1;ratioP1;P1;durP2;ratioP2;P2;SDS_P1;SDS_P2;PMS_P1;PMS_P2;Temp;Humidity;BMP_temperature;BMP_pressure;BME280_temperature;BME280_humidity;BME280_pressure;Samples;Min_cycle;Max_cycle;Signal;HPM_P1;HPM_P2
2022/12/30 00:02:08;;;;;;;21.23;2.53;;;5.10;99.90;;;;;;5046192;28;20041;-43
2022/12/30 00:04:33;;;;;;;20.52;3.05;;;5.10;99.90;;;;;;5048054;28;20151;-44
2022/12/30 00:07:00;;;;;;;15.88;2.75;;;5.70;99.90;;;;;;5047751;28;20055;-44
2022/12/30 00:09:26;;;;;;;16.95;1.83;;;5.20;99.90;;;;;;5047369;28;20052;-43
2022/12/30 00:11:51;;;;;;;23.38;3.83;;;5.30;99.90;;;;;;5047976;28;20045;-43
2022/12/30 00:34:04;;;;;;;22.10;2.55;;;5.00;99.90;;;;;;5047052;28;20258;-43
2022/12/30 00:36:30;;;;;;;17.17;3.03;;;4.80;99.90;;;;;;5048139;28;20161;-43
2022/12/30 00:38:56;;;;;;;21.38;3.10;;;4.90;99.90;;;;;;5048177;28;20041;-43
2022/12/30 00:44:06;;;;;;;19.65;3.15;;;5.40;99.90;;;;;;5047937;28;20098;-42
2022/12/30 00:46:33;;;;;;;19.15;2.20;;;5.90;99.90;;;;;;5047876;28;20443;-43
2022/12/30 00:57:13;;;;;;;17.83;4.40;;;4.90;99.90;;;;;;5047622;28;20052;-44
2022/12/30 00:59:39;;;;;;;19.30;2.70;;;4.80;99.90;;;;;;5047601;28;20048;-43
2022/12/30 01:02:05;;;;;;;21.85;2.70;;;4.80;99.90;;;;;;5047697;28;20129;-43
2022/12/30 01:04:30;;;;;;;24.10;2.38;;;6.00;99.90;;;;;;5047101;28;20052;-42
2022/12/30 01:06:56;;;;;;;22.50;2.53;;;4.90;99.90;;;;;;5047353;28;20870;-44
2022/12/30 01:09:22;;;;;;;21.20;2.33;;;4.60;99.90;;;;;;5046928;28;20230;-43
2022/12/30 01:14:32;;;;;;;18.23;1.98;;;5.80;99.90;;;;;;5047162;28;20068;-43
2022/12/30 01:16:57;;;;;;;21.60;3.22;;;4.70;99.90;;;;;;5047533;28;20469;-42
2022/12/30 01:19:23;;;;;;;18.95;2.80;;;5.20;99.90;;;;;;5045652;28;20048;-44
2022/12/30 01:21:49;;;;;;;19.67;2.50;;;4.80;99.90;;;;;;5047531;28;20044;-42
2022/12/30 01:24:14;;;;;;;25.48;4.10;;;4.90;99.90;;;;;;5047966;28;20072;-48
2022/12/30 01:26:40;;;;;;;21.15;3.50;;;4.70;99.90;;;;;;5047468;28;20112;-48
2022/12/30 01:29:06;;;;;;;19.83;3.03;;;4.80;99.90;;;;;;5046007;28;20640;-48
2022/12/30 01:31:31;;;;;;;15.52;2.78;;;4.80;99.90;;;;;;5047168;28;20108;-49
2022/12/30 01:33:57;;;;;;;20.80;2.55;;;4.70;99.90;;;;;;5046713;28;20823;-47
2022/12/30 01:36:23;;;;;;;22.30;2.22;;;4.90;99.90;;;;;;5046913;28;20440;-48
2022/12/30 01:38:48;;;;;;;16.27;1.85;;;4.80;99.90;;;;;;5046698;28;20037;-48
2022/12/30 01:41:14;;;;;;;20.02;2.30;;;4.90;99.90;;;;;;5046775;28;20110;-47
2022/12/30 01:43:43;;;;;;;35.83;4.70;;;4.90;99.90;;;;;;5046462;28;20036;-47
2022/12/30 01:46:12;;;;;;;19.02;3.17;;;4.70;99.90;;;;;;5046592;28;20102;-46
2022/12/30 01:48:38;;;;;;;20.00;2.00;;;4.70;99.90;;;;;;5046689;28;20044;-48
2022/12/30 01:51:09;;;;;;;23.02;2.38;;;4.90;99.90;;;;;;5046988;28;20041;-47
2022/12/30 01:53:44;;;;;;;17.35;2.55;;;4.90;99.90;;;;;;5046689;28;20053;-47
2022/12/30 01:56:23;;;;;;;20.08;3.38;;;4.60;99.90;;;;;;5046576;28;20041;-51
2022/12/30 01:59:14;;;;;;;18.60;1.98;;;4.80;99.90;;;;;;5046366;28;20049;-49
2022/12/30 02:01:41;;;;;;;25.65;3.63;;;4.70;99.90;;;;;;5045931;28;20056;-47
2022/12/30 02:04:20;;;;;;;21.23;3.10;;;4.50;99.90;;;;;;5046510;28;20618;-47
2022/12/30 02:07:13;;;;;;;17.80;2.45;;;4.70;99.90;;;;;;5028710;28;20057;-47
2022/12/30 02:09:39;;;;;;;21.45;2.10;;;4.70;99.90;;;;;;5046953;28;20056;-47
2022/12/30 02:12:05;;;;;;;18.27;2.38;;;5.60;99.90;;;;;;5047063;28;20737;-46
2022/12/30 02:14:34;;;;;;;20.92;3.20;;;4.70;99.90;;;;;;5046341;28;20108;-47
2022/12/30 02:17:46;;;;;;;20.35;3.40;;;4.50;99.90;;;;;;5046744;28;20045;-48
2022/12/30 02:20:26;;;;;;;25.70;2.40;;;4.70;99.90;;;;;;5036120;28;20081;-46
2022/12/30 02:23:16;;;;;;;13.68;2.58;;;4.60;99.90;;;;;;5045999;28;20108;-46
2022/12/30 02:26:06;;;;;;;18.75;2.17;;;4.60;99.90;;;;;;5045799;28;20080;-46
2022/12/30 02:28:34;;;;;;;23.70;3.28;;;4.60;99.90;;;;;;5046483;28;20432;-46
2022/12/30 02:31:29;;;;;;;26.60;4.15;;;4.50;99.90;;;;;;5046572;28;20091;-48
2022/12/30 02:34:33;;;;;;;24.67;2.70;;;4.50;99.90;;;;;;5046251;28;20048;-46
2022/12/30 02:37:12;;;;;;;20.42;2.22;;;4.40;99.90;;;;;;5023212;28;20048;-48
2022/12/30 02:39:48;;;;;;;18.50;2.72;;;4.40;99.90;;;;;;5023278;28;20037;-46
2022/12/30 02:45:31;;;;;;;17.83;3.28;;;4.40;99.90;;;;;;5046672;28;20136;-47
2022/12/30 02:48:16;;;;;;;15.43;2.25;;;4.20;99.90;;;;;;5046190;28;20124;-49
2022/12/30 02:53:32;;;;;;;18.13;2.75;;;4.10;99.90;;;;;;5046173;28;20537;-48
2022/12/30 02:55:58;;;;;;;28.45;3.55;;;4.20;99.90;;;;;;5046677;28;20033;-47
2022/12/30 02:58:28;;;;;;;22.83;2.83;;;4.20;99.90;;;;;;5049573;28;20410;-47
2022/12/30 03:04:01;;;;;;;;;;;4.20;99.90;;;;;;5049645;28;20517;-49
2022/12/30 03:07:04;;;;;;;25.23;2.90;;;4.30;99.90;;;;;;5049509;28;19921;-46
2022/12/30 03:11:12;;;;;;;25.20;2.90;;;4.20;99.90;;;;;;5049578;28;20103;-46
2022/12/30 03:12:39;;;;;;;19.65;3.50;;;4.30;99.90;;;;;;5048089;28;20527;-46
2022/12/30 03:15:14;;;;;;;24.25;3.80;;;4.30;99.90;;;;;;5049275;28;20072;-49
2022/12/30 03:17:41;;;;;;;30.85;3.85;;;4.20;99.90;;;;;;5049101;28;20132;-47
2022/12/30 03:20:12;;;;;;;22.38;3.05;;;4.30;99.90;;;;;;5049400;28;20145;-46
2022/12/30 03:28:13;;;;;;;21.00;2.67;;;4.10;99.90;;;;;;5049362;28;20383;-47
2022/12/30 03:30:46;;;;;;;25.65;2.47;;;4.00;99.90;;;;;;5049285;28;20072;-47
2022/12/30 03:33:12;;;;;;;23.42;3.05;;;3.90;99.90;;;;;;5049241;28;20044;-48
2022/12/30 03:35:46;;;;;;;20.75;2.92;;;3.80;99.90;;;;;;5048755;28;20132;-46
2022/12/30 03:38:13;;;;;;;21.98;3.50;;;3.80;99.90;;;;;;5048973;28;20403;-47
2022/12/30 03:40:41;;;;;;;18.05;3.05;;;3.70;99.90;;;;;;5049142;28;20048;-47
2022/12/30 03:43:08;;;;;;;19.60;2.78;;;3.70;99.90;;;;;;5048369;28;20530;-46
2022/12/30 03:45:34;;;;;;;28.30;3.60;;;3.60;99.90;;;;;;5048856;28;20186;-47
2022/12/30 03:48:00;;;;;;;19.33;2.30;;;3.60;99.90;;;;;;5048394;28;20075;-46
2022/12/30 03:50:25;;;;;;;21.15;3.10;;;3.60;99.90;;;;;;5048749;28;20399;-47
2022/12/30 03:52:51;;;;;;;13.93;2.75;;;4.00;99.90;;;;;;5048328;28;20037;-48
2022/12/30 03:55:17;;;;;;;26.60;3.67;;;3.70;99.90;;;;;;5049014;28;20048;-46
2022/12/30 03:57:43;;;;;;;18.88;3.10;;;3.60;99.90;;;;;;5048796;28;20636;-49
2022/12/30 04:00:09;;;;;;;23.67;4.13;;;3.60;99.90;;;;;;5048866;28;20130;-48
2022/12/30 04:02:37;;;;;;;24.52;3.55;;;3.60;99.90;;;;;;5048912;28;20226;-48
2022/12/30 04:05:04;;;;;;;25.20;3.55;;;3.60;99.90;;;;;;5048438;28;20052;-47
2022/12/30 04:07:30;;;;;;;19.55;3.17;;;3.60;99.90;;;;;;5047839;28;20120;-47
2022/12/30 04:09:55;;;;;;;24.23;4.53;;;3.50;99.90;;;;;;5048780;28;20242;-47
2022/12/30 04:12:21;;;;;;;18.42;3.40;;;3.30;99.90;;;;;;5048507;28;20041;-48
2022/12/30 04:14:47;;;;;;;23.25;4.68;;;3.40;99.90;;;;;;5048510;28;20045;-50
2022/12/30 04:17:12;;;;;;;23.73;5.05;;;3.40;99.90;;;;;;5048499;28;20060;-47
2022/12/30 04:19:38;;;;;;;23.55;4.47;;;3.40;99.90;;;;;;5048068;28;20045;-46
2022/12/30 04:22:04;;;;;;;20.00;5.10;;;3.40;99.90;;;;;;5048198;28;20045;-48
2022/12/30 04:24:29;;;;;;;13.52;3.55;;;3.50;99.90;;;;;;5048486;28;20045;-49
2022/12/30 04:26:55;;;;;;;26.25;4.80;;;3.40;99.90;;;;;;5048076;28;20313;-46
2022/12/30 04:29:21;;;;;;;34.15;5.00;;;3.50;99.90;;;;;;5048301;28;20041;-47
2022/12/30 04:31:46;;;;;;;17.25;3.63;;;3.50;99.90;;;;;;5047666;28;20037;-46
2022/12/30 04:34:14;;;;;;;29.15;4.50;;;3.50;99.90;;;;;;5048053;28;20040;-48
2022/12/30 04:36:41;;;;;;;18.55;4.75;;;3.40;99.90;;;;;;5048179;28;20048;-47
2022/12/30 04:39:07;;;;;;;21.70;3.90;;;3.50;99.90;;;;;;5047768;28;20036;-46
2022/12/30 04:41:32;;;;;;;17.38;4.35;;;3.40;99.90;;;;;;5048213;28;20391;-48
2022/12/30 04:44:00;;;;;;;24.90;5.00;;;3.40;99.90;;;;;;5047425;28;20040;-46
2022/12/30 04:46:26;;;;;;;17.63;5.22;;;3.40;99.90;;;;;;5048142;28;20045;-49
2022/12/30 04:48:51;;;;;;;20.95;3.78;;;3.40;99.90;;;;;;5048123;28;20114;-47
2022/12/30 04:51:17;;;;;;;19.02;4.28;;;3.40;99.90;;;;;;5047548;28;20276;-47
2022/12/30 04:53:43;;;;;;;18.27;4.40;;;3.40;99.90;;;;;;5047610;28;20078;-46
2022/12/30 04:56:08;;;;;;;20.30;3.90;;;3.40;99.90;;;;;;5047683;28;20037;-47
2022/12/30 04:58:34;;;;;;;19.50;3.53;;;3.40;99.90;;;;;;5047254;28;20040;-46
2022/12/30 05:00:59;;;;;;;20.35;4.43;;;3.40;99.90;;;;;;5047052;28;20036;-50
2022/12/30 05:03:25;;;;;;;18.80;4.20;;;3.90;99.90;;;;;;5047414;28;20049;-47
2022/12/30 05:05:51;;;;;;;19.27;4.25;;;3.30;99.90;;;;;;5047116;28;20041;-47
2022/12/30 05:08:17;;;;;;;20.05;4.35;;;3.30;99.90;;;;;;5046785;28;20459;-49
2022/12/30 05:10:42;;;;;;;23.40;3.58;;;3.20;99.90;;;;;;5047403;28;20376;-46
2022/12/30 05:13:08;;;;;;;21.85;3.58;;;3.20;99.90;;;;;;5047041;28;20048;-47
2022/12/30 05:15:34;;;;;;;22.42;4.32;;;3.20;99.90;;;;;;5047033;28;20053;-51
2022/12/30 05:18:00;;;;;;;18.05;4.15;;;4.20;99.90;;;;;;5047221;28;20041;-46
2022/12/30 05:20:25;;;;;;;14.15;3.50;;;3.10;99.90;;;;;;5046695;28;20048;-49
2022/12/30 05:22:51;;;;;;;15.65;3.28;;;4.20;99.90;;;;;;5047206;28;20036;-47
2022/12/30 05:28:01;;;;;;;14.60;3.47;;;3.20;99.90;;;;;;5047105;28;20076;-48
2022/12/30 05:30:27;;;;;;;17.55;3.53;;;3.20;99.90;;;;;;5045933;28;20490;-46
2022/12/30 05:32:52;;;;;;;18.08;4.25;;;3.00;99.90;;;;;;5047516;28;20041;-46
2022/12/30 05:35:18;;;;;;;23.98;4.47;;;3.10;99.90;;;;;;5046718;28;20120;-47
2022/12/30 05:37:44;;;;;;;20.60;3.70;;;3.10;99.90;;;;;;5047252;28;20044;-48
2022/12/30 05:40:10;;;;;;;17.90;4.00;;;3.20;99.90;;;;;;5046858;28;20041;-47
2022/12/30 05:42:36;;;;;;;20.17;4.72;;;3.00;99.90;;;;;;5047124;28;20059;-46
2022/12/30 05:45:03;;;;;;;19.88;3.30;;;3.10;99.90;;;;;;5047236;28;20132;-46
2022/12/30 05:47:28;;;;;;;24.30;5.53;;;3.10;99.90;;;;;;5046786;28;20052;-48
2022/12/30 05:49:54;;;;;;;16.13;3.08;;;3.10;99.90;;;;;;5047346;28;20041;-46
2022/12/30 05:52:20;;;;;;;13.57;3.35;;;3.10;99.90;;;;;;5047312;28;20064;-49
2022/12/30 05:54:45;;;;;;;26.15;6.03;;;3.10;99.90;;;;;;5047689;28;20056;-47
2022/12/30 05:57:11;;;;;;;15.13;3.38;;;3.10;99.90;;;;;;5046762;28;20076;-47
2022/12/30 05:59:37;;;;;;;14.40;3.35;;;3.20;99.90;;;;;;5047045;28;20037;-48
2022/12/30 06:02:02;;;;;;;17.80;3.33;;;3.10;99.90;;;;;;5046658;28;20090;-47
2022/12/30 06:04:28;;;;;;;24.40;4.30;;;3.00;99.90;;;;;;5046278;28;20458;-46
2022/12/30 06:06:54;;;;;;;12.18;2.70;;;3.10;99.90;;;;;;5046505;28;20049;-47
2022/12/30 06:09:20;;;;;;;15.13;3.00;;;3.00;99.90;;;;;;5046579;28;20073;-47
2022/12/30 06:11:45;;;;;;;16.52;3.40;;;3.10;99.90;;;;;;5046919;28;20051;-50
2022/12/30 06:14:14;;;;;;;16.95;2.85;;;3.00;99.90;;;;;;5046756;28;20144;-46
2022/12/30 06:16:40;;;;;;;19.08;3.42;;;3.30;99.90;;;;;;5046477;28;20487;-47
2022/12/30 06:19:07;;;;;;;19.83;3.67;;;2.90;99.90;;;;;;5046782;28;20410;-47
2022/12/30 06:21:33;;;;;;;16.98;3.45;;;3.00;99.90;;;;;;5046689;28;20079;-47
2022/12/30 06:23:59;;;;;;;18.77;3.58;;;3.10;99.90;;;;;;5046925;28;20114;-48
2022/12/30 06:26:25;;;;;;;22.00;3.47;;;3.10;99.90;;;;;;5046384;28;20480;-47
2022/12/30 06:28:51;;;;;;;25.75;3.80;;;3.10;99.90;;;;;;5046593;28;20045;-46
2022/12/30 06:31:16;;;;;;;18.95;2.45;;;3.00;99.90;;;;;;5047545;28;20040;-47
2022/12/30 06:33:42;;;;;;;17.55;3.10;;;3.10;99.90;;;;;;5050127;28;20041;-47
2022/12/30 06:36:08;;;;;;;24.25;3.83;;;3.00;99.90;;;;;;5049990;28;20128;-47
2022/12/30 06:38:34;;;;;;;21.67;4.13;;;2.90;99.90;;;;;;5049981;28;20067;-46
2022/12/30 06:41:00;;;;;;;17.02;3.30;;;3.10;99.90;;;;;;5050571;28;20049;-47
2022/12/30 06:43:25;;;;;;;20.30;3.10;;;3.00;99.90;;;;;;5050243;28;20072;-49
2022/12/30 06:45:51;;;;;;;22.52;3.45;;;3.00;99.90;;;;;;5050408;28;20044;-46
2022/12/30 06:48:17;;;;;;;25.30;3.05;;;3.00;99.90;;;;;;5050337;28;20081;-47
2022/12/30 06:50:42;;;;;;;17.85;3.10;;;3.20;99.90;;;;;;5050136;28;20037;-47
2022/12/30 06:53:08;;;;;;;26.25;3.45;;;2.90;99.90;;;;;;5048543;28;20780;-47
2022/12/30 06:55:34;;;;;;;19.70;3.20;;;2.90;99.90;;;;;;5049878;28;20379;-46
2022/12/30 06:58:01;;;;;;;23.55;2.92;;;2.80;99.90;;;;;;5049846;28;20053;-47
2022/12/30 07:00:27;;;;;;;36.58;7.15;;;3.00;99.90;;;;;;5049859;28;20055;-47
2022/12/30 07:02:53;;;;;;;22.10;4.68;;;3.80;99.90;;;;;;5049897;28;20049;-46
2022/12/30 07:05:19;;;;;;;26.42;2.97;;;3.00;99.90;;;;;;5049490;28;20041;-48
2022/12/30 07:07:45;;;;;;;17.40;2.65;;;3.00;99.90;;;;;;5049915;28;20098;-48
2022/12/30 07:10:11;;;;;;;22.42;3.25;;;3.00;99.90;;;;;;5049015;28;20715;-49
2022/12/30 07:12:36;;;;;;;11.95;2.63;;;2.90;99.90;;;;;;5049440;28;20120;-51
2022/12/30 07:15:04;;;;;;;24.60;3.25;;;3.10;99.90;;;;;;5049336;28;20081;-47
2022/12/30 07:17:30;;;;;;;21.33;2.67;;;2.90;99.90;;;;;;5049716;28;20053;-47
2022/12/30 07:19:55;;;;;;;17.98;2.95;;;4.00;99.90;;;;;;5049917;28;20764;-47
2022/12/30 07:22:21;;;;;;;17.80;3.75;;;3.10;99.90;;;;;;5049440;28;20048;-47
2022/12/30 07:24:47;;;;;;;19.75;2.83;;;3.10;99.90;;;;;;5049277;28;20043;-48
2022/12/30 07:27:13;;;;;;;23.52;3.42;;;3.10;99.90;;;;;;5049420;28;20044;-48
2022/12/30 07:29:39;;;;;;;14.15;2.80;;;3.20;99.90;;;;;;5049299;28;20121;-48
2022/12/30 07:32:10;;;;;;;14.55;3.00;;;3.10;99.90;;;;;;5049572;28;20116;-46
2022/12/30 07:34:38;;;;;;;20.77;2.95;;;3.10;99.90;;;;;;5049317;28;20037;-49
2022/12/30 07:37:05;;;;;;;21.70;3.47;;;3.10;99.90;;;;;;5049435;28;20087;-47
2022/12/30 07:39:31;;;;;;;19.23;2.60;;;3.10;99.90;;;;;;5049032;28;20033;-47
2022/12/30 07:41:57;;;;;;;19.30;2.67;;;3.10;99.90;;;;;;5048989;28;20041;-47
2022/12/30 07:44:23;;;;;;;19.15;2.95;;;3.00;99.90;;;;;;5049179;28;20047;-48
2022/12/30 07:46:49;;;;;;;15.23;2.08;;;4.00;99.90;;;;;;5048606;28;20521;-48
2022/12/30 07:49:15;;;;;;;19.58;2.85;;;3.40;99.90;;;;;;5048664;28;20048;-48
2022/12/30 07:51:40;;;;;;;18.05;2.33;;;3.00;99.90;;;;;;5048411;28;20041;-46
2022/12/30 07:54:06;;;;;;;14.25;2.70;;;3.20;99.90;;;;;;5048701;28;20131;-46
2022/12/30 07:56:32;;;;;;;13.35;2.80;;;3.20;99.90;;;;;;5048582;28;20048;-48
2022/12/30 07:58:58;;;;;;;20.23;3.50;;;3.20;99.90;;;;;;5048777;28;20049;-46
2022/12/30 08:01:25;;;;;;;17.40;2.83;;;3.20;99.90;;;;;;5047109;28;20416;-48
2022/12/30 08:03:51;;;;;;;10.32;2.97;;;3.20;99.90;;;;;;5046908;28;20067;-47
2022/12/30 08:06:18;;;;;;;15.98;2.28;;;3.30;99.90;;;;;;5048349;28;20044;-46
2022/12/30 08:08:44;;;;;;;23.20;3.65;;;3.50;99.90;;;;;;5047977;28;20819;-47
2022/12/30 08:11:11;;;;;;;28.75;4.82;;;3.10;99.90;;;;;;5046627;28;20454;-47
2022/12/30 08:13:39;;;;;;;14.88;2.78;;;3.40;99.90;;;;;;5048013;28;20068;-47
2022/12/30 08:16:13;;;;;;;13.38;2.47;;;3.40;99.90;;;;;;5047825;28;20085;-46
2022/12/30 08:18:40;;;;;;;12.75;2.30;;;3.20;99.90;;;;;;5048268;28;20037;-47
2022/12/30 08:21:09;;;;;;;21.77;2.58;;;3.50;99.90;;;;;;5046943;28;20049;-47
2022/12/30 08:23:34;;;;;;;17.63;2.95;;;3.50;99.90;;;;;;5048504;28;20083;-46
2022/12/30 08:26:05;;;;;;;17.27;2.30;;;3.50;99.90;;;;;;5048078;28;20435;-47
2022/12/30 08:28:31;;;;;;;17.25;3.50;;;3.50;99.90;;;;;;5048608;28;20136;-46
2022/12/30 08:30:57;;;;;;;16.80;2.70;;;3.60;99.90;;;;;;5048345;28;20127;-47
2022/12/30 08:33:22;;;;;;;13.43;2.47;;;3.60;99.90;;;;;;5048548;28;20845;-47
2022/12/30 08:35:48;;;;;;;17.00;3.63;;;3.70;99.90;;;;;;5048249;28;20045;-46
2022/12/30 08:38:13;;;;;;;12.68;2.90;;;3.80;99.90;;;;;;5046910;28;20044;-47
2022/12/30 08:40:39;;;;;;;18.67;3.88;;;3.30;99.90;;;;;;5048230;28;20458;-49
2022/12/30 08:43:05;;;;;;;19.52;3.08;;;3.70;99.90;;;;;;5048264;28;20828;-49
2022/12/30 08:45:30;;;;;;;21.58;3.88;;;3.70;99.90;;;;;;5048289;28;20095;-47
2022/12/30 08:47:56;;;;;;;18.27;3.15;;;3.60;99.90;;;;;;5047875;28;20402;-46
2022/12/30 08:50:22;;;;;;;18.05;3.72;;;4.70;99.90;;;;;;5048070;28;20130;-47
2022/12/30 08:52:48;;;;;;;23.08;3.53;;;4.10;99.90;;;;;;5047529;28;20033;-47
2022/12/30 08:55:13;;;;;;;15.30;4.95;;;3.70;99.90;;;;;;5046412;28;20044;-46
2022/12/30 08:57:39;;;;;;;14.52;2.65;;;4.00;99.90;;;;;;5046130;28;20049;-47
2022/12/30 09:00:06;;;;;;;15.25;4.03;;;4.00;99.90;;;;;;5047979;28;20052;-49
2022/12/30 09:02:33;;;;;;;17.25;3.00;;;4.00;99.90;;;;;;5047749;28;20045;-49
2022/12/30 09:04:59;;;;;;;11.65;3.72;;;4.20;99.90;;;;;;5047269;28;20515;-47
2022/12/30 09:07:25;;;;;;;13.15;2.60;;;4.10;99.90;;;;;;5047248;28;20128;-46
2022/12/30 09:09:51;;;;;;;19.33;3.70;;;4.10;99.90;;;;;;5047751;28;20654;-48
2022/12/30 09:12:17;;;;;;;16.05;2.67;;;4.00;99.90;;;;;;5047600;28;20036;-47
2022/12/30 09:14:43;;;;;;;17.27;3.63;;;4.20;99.90;;;;;;5047455;28;20142;-46
2022/12/30 09:17:09;;;;;;;18.02;3.00;;;5.30;99.90;;;;;;5047570;28;20518;-50
2022/12/30 09:19:35;;;;;;;20.25;2.90;;;4.60;99.90;;;;;;5047480;28;20076;-47
2022/12/30 09:22:00;;;;;;;10.82;2.38;;;4.40;99.90;;;;;;5047518;28;20076;-46
2022/12/30 09:24:26;;;;;;;15.10;2.53;;;4.60;99.90;;;;;;5046542;28;20055;-48
2022/12/30 09:26:52;;;;;;;20.65;3.88;;;4.20;99.90;;;;;;5046541;28;20052;-48
2022/12/30 09:29:18;;;;;;;21.33;3.38;;;4.60;99.90;;;;;;5046983;28;20475;-47
2022/12/30 09:31:44;;;;;;;16.42;2.70;;;4.40;99.90;;;;;;5046350;28;20741;-48
2022/12/30 09:34:09;;;;;;;15.88;1.95;;;4.50;99.90;;;;;;5046644;28;20076;-46
2022/12/30 09:36:35;;;;;;;10.50;2.63;;;4.80;99.90;;;;;;5046952;28;20080;-47
2022/12/30 09:39:01;;;;;;;12.48;2.05;;;4.60;99.90;;;;;;5046113;28;20382;-47
2022/12/30 09:44:57;;;;;;;16.27;3.55;;;4.70;99.90;;;;;;5054090;28;20049;-44
2022/12/30 09:47:28;;;;;;;14.65;2.55;;;4.60;99.90;;;;;;5015575;28;20493;-44
2022/12/30 09:50:15;;;;;;;10.83;1.80;;;4.70;99.90;;;;;;5024573;28;20124;-43
2022/12/30 09:53:09;;;;;;;17.55;1.67;;;4.70;99.90;;;;;;5025172;28;20034;-44
2022/12/30 09:55:47;;;;;;;8.57;1.90;;;4.80;99.90;;;;;;5024328;28;20107;-44
2022/12/30 09:58:24;;;;;;;13.93;1.70;;;5.00;99.90;;;;;;5006846;28;20053;-44
2022/12/30 10:00:53;;;;;;;10.18;1.55;;;5.00;99.90;;;;;;5024107;28;20511;-44
2022/12/30 10:03:28;;;;;;;10.27;1.58;;;5.00;99.90;;;;;;5024889;28;20041;-44
2022/12/30 10:06:15;;;;;;;10.10;1.58;;;4.90;99.90;;;;;;5027543;28;20044;-43
2022/12/30 10:09:04;;;;;;;12.00;2.67;;;4.90;99.90;;;;;;5028657;28;20081;-44
2022/12/30 10:11:48;;;;;;;10.05;2.42;;;5.00;99.90;;;;;;5028401;28;20042;-43
2022/12/30 10:14:51;;;;;;;11.30;1.70;;;5.40;99.90;;;;;;5028695;28;20828;-42
2022/12/30 10:17:26;;;;;;;13.07;1.40;;;5.10;99.90;;;;;;5028189;28;20499;-44
2022/12/30 10:20:20;;;;;;;11.98;2.33;;;5.20;99.90;;;;;;5029064;28;20041;-46
2022/12/30 10:23:10;;;;;;;15.43;2.65;;;5.20;99.90;;;;;;5029187;28;20064;-44
2022/12/30 10:25:51;;;;;;;8.43;0.90;;;5.10;99.90;;;;;;5028125;28;20057;-44
2022/12/30 10:28:31;;;;;;;9.38;2.13;;;5.60;99.90;;;;;;5028581;28;20040;-47
2022/12/30 10:30:57;;;;;;;8.25;1.90;;;5.40;99.90;;;;;;5028348;28;20382;-45
2022/12/30 10:33:23;;;;;;;6.50;1.33;;;5.80;99.90;;;;;;5028697;28;20041;-49
2022/12/30 10:35:58;;;;;;;7.55;1.90;;;5.80;99.90;;;;;;5028302;28;20812;-42
2022/12/30 10:38:30;;;;;;;8.82;1.40;;;5.70;99.90;;;;;;5028027;28;20053;-45
2022/12/30 10:41:20;;;;;;;8.40;1.40;;;5.70;99.90;;;;;;5028578;28;20049;-44
2022/12/30 10:44:18;;;;;;;7.85;1.65;;;5.60;99.90;;;;;;5017696;28;20056;-45
2022/12/30 10:46:46;;;;;;;6.63;1.10;;;5.70;99.90;;;;;;5006138;28;20053;-46
2022/12/30 10:49:29;;;;;;;12.68;2.67;;;6.90;99.90;;;;;;5026602;28;20054;-46
2022/12/30 10:51:55;;;;;;;;;;;5.80;99.90;;;;;;5027429;28;20095;-47
2022/12/30 10:54:20;;;;;;;8.40;1.15;;;5.70;99.90;;;;;;5025749;28;19928;-47
2022/12/30 10:56:49;;;;;;;6.63;1.30;;;6.20;99.90;;;;;;5026743;28;20814;-46
2022/12/30 10:59:25;;;;;;;6.68;1.48;;;6.00;99.90;;;;;;5026490;28;20046;-46
2022/12/30 11:01:58;;;;;;;10.45;1.23;;;6.10;99.90;;;;;;5025634;28;20081;-48
2022/12/30 11:04:40;;;;;;;9.10;1.30;;;6.00;99.90;;;;;;5026078;28;20056;-45
2022/12/30 11:07:09;;;;;;;7.10;1.15;;;6.10;99.90;;;;;;5026041;28;20845;-46
2022/12/30 11:09:35;;;;;;;6.30;1.30;;;7.20;99.90;;;;;;5027118;28;20056;-55
2022/12/30 11:15:10;;;;;;;12.27;1.48;;;5.80;99.90;;;;;;5026049;28;20068;-51
2022/12/30 11:17:47;;;;;;;10.48;2.00;;;6.00;99.90;;;;;;5025521;28;20526;-55
2022/12/30 11:20:13;;;;;;;10.20;1.45;;;5.80;99.90;;;;;;5026538;28;20045;-50
2022/12/30 11:22:49;;;;;;;11.93;2.63;;;6.00;99.90;;;;;;5026149;28;20057;-56
2022/12/30 11:25:27;;;;;;;10.18;1.48;;;6.00;99.90;;;;;;5024902;28;20046;-56
2022/12/30 11:28:05;;;;;;;7.55;1.10;;;6.00;99.90;;;;;;5026626;28;20041;-51
2022/12/30 11:31:02;;;;;;;6.63;1.02;;;6.00;99.90;;;;;;5026865;28;20125;-48
2022/12/30 11:33:36;;;;;;;7.35;0.80;;;6.10;99.90;;;;;;5023483;28;20056;-50
2022/12/30 11:36:33;;;;;;;8.80;1.52;;;5.80;99.90;;;;;;5026248;28;20785;-49
2022/12/30 11:39:04;;;;;;;6.55;1.40;;;6.20;99.90;;;;;;5026173;28;20510;-52
2022/12/30 11:41:32;;;;;;;5.00;1.05;;;6.10;99.90;;;;;;5025115;28;20049;-54
2022/12/30 11:44:00;;;;;;;5.40;0.90;;;6.20;99.90;;;;;;5026531;28;20056;-54
2022/12/30 11:46:43;;;;;;;7.60;0.93;;;6.30;99.90;;;;;;5005822;28;20725;-45
2022/12/30 11:49:34;;;;;;;9.70;0.90;;;6.40;99.90;;;;;;5024629;28;20114;-44
2022/12/30 11:52:14;;;;;;;7.13;0.98;;;6.40;99.90;;;;;;5025632;28;20045;-46
2022/12/30 11:54:45;;;;;;;3.83;0.63;;;6.40;99.90;;;;;;5025226;28;20053;-46
2022/12/30 11:57:26;;;;;;;8.43;0.95;;;6.50;99.90;;;;;;5025852;28;20391;-45
2022/12/30 12:00:02;;;;;;;14.45;1.75;;;6.50;99.90;;;;;;5026379;28;20053;-49
2022/12/30 12:02:34;;;;;;;4.05;0.70;;;6.50;99.90;;;;;;5025207;28;20542;-55
2022/12/30 12:05:00;;;;;;;7.55;2.20;;;6.60;99.90;;;;;;5026794;28;20046;-54
2022/12/30 12:07:41;;;;;;;14.35;1.05;;;6.60;99.90;;;;;;5024467;28;20462;-50
2022/12/30 12:10:22;;;;;;;6.22;1.17;;;6.60;99.90;;;;;;5025019;28;20475;-54
2022/12/30 12:12:51;;;;;;;5.78;0.95;;;6.60;99.90;;;;;;5026304;28;20041;-53
2022/12/30 12:15:49;;;;;;;5.10;1.25;;;6.70;99.90;;;;;;5026715;28;20046;-51
2022/12/30 12:18:26;;;;;;;10.80;1.88;;;6.70;99.90;;;;;;5026045;28;20068;-54
2022/12/30 12:21:27;;;;;;;4.35;0.40;;;6.70;99.90;;;;;;5025885;28;20060;-53
2022/12/30 12:24:01;;;;;;;3.35;0.57;;;6.70;99.90;;;;;;5025979;28;20052;-46
2022/12/30 12:26:42;;;;;;;6.63;1.02;;;6.70;99.90;;;;;;5025781;28;20207;-49
2022/12/30 12:29:14;;;;;;;8.55;0.70;;;6.70;99.90;;;;;;5024276;28;20060;-46
2022/12/30 12:31:49;;;;;;;11.43;1.00;;;6.60;99.90;;;;;;5025291;28;20045;-46
2022/12/30 12:34:36;;;;;;;4.45;0.32;;;6.80;99.90;;;;;;5025436;28;20045;-45
2022/12/30 12:37:42;;;;;;;4.90;0.90;;;6.70;99.90;;;;;;5024952;28;20037;-45
2022/12/30 12:40:50;;;;;;;9.98;0.63;;;6.80;99.90;;;;;;4982618;28;20054;-46
2022/12/30 12:43:21;;;;;;;4.07;0.68;;;6.80;99.90;;;;;;4925057;29;20056;-48
2022/12/30 12:46:11;;;;;;;5.03;0.50;;;6.70;99.90;;;;;;4986287;28;20053;-46
2022/12/30 12:48:48;;;;;;;3.45;0.60;;;6.80;99.90;;;;;;5024876;28;20171;-51
2022/12/30 12:51:33;;;;;;;4.72;0.68;;;6.80;99.90;;;;;;5024356;28;20099;-46
2022/12/30 12:54:20;;;;;;;4.97;0.60;;;6.90;99.90;;;;;;5024901;28;20049;-46
2022/12/30 12:57:25;;;;;;;6.53;0.77;;;6.90;99.90;;;;;;5024801;28;20116;-42
2022/12/30 13:00:08;;;;;;;3.53;0.70;;;6.90;99.90;;;;;;5024671;28;20041;-46
2022/12/30 13:02:53;;;;;;;6.85;0.73;;;6.90;99.90;;;;;;5024807;28;20049;-46
2022/12/30 13:05:24;;;;;;;6.03;0.52;;;7.00;99.90;;;;;;5056294;28;20050;-46
2022/12/30 13:08:06;;;;;;;4.93;1.10;;;7.00;99.90;;;;;;5023235;28;20439;-50
2022/12/30 13:10:35;;;;;;;3.35;0.47;;;7.00;99.90;;;;;;5024633;28;20283;-49
2022/12/30 13:13:24;;;;;;;5.45;0.52;;;7.10;99.90;;;;;;5024663;28;20053;-46
2022/12/30 13:16:00;;;;;;;7.50;0.52;;;7.10;99.90;;;;;;5023397;28;20522;-47
2022/12/30 13:18:30;;;;;;;5.32;0.50;;;7.10;99.90;;;;;;5024468;28;20056;-48
2022/12/30 13:21:01;;;;;;;5.95;0.40;;;8.20;99.90;;;;;;5025526;28;20046;-53
2022/12/30 13:23:32;;;;;;;5.78;0.40;;;7.30;99.90;;;;;;5025057;28;20403;-52
2022/12/30 13:26:03;;;;;;;3.35;0.40;;;7.10;99.90;;;;;;5024789;28;20045;-49
2022/12/30 13:28:32;;;;;;;4.93;0.73;;;7.10;99.90;;;;;;5024791;28;20056;-49
2022/12/30 13:31:04;;;;;;;3.63;0.30;;;7.40;99.90;;;;;;5025176;28;20042;-48
2022/12/30 13:33:56;;;;;;;4.75;0.22;;;7.60;99.90;;;;;;5023538;28;20045;-45
2022/12/30 13:36:35;;;;;;;5.63;0.80;;;7.00;99.90;;;;;;5018091;28;20407;-48
2022/12/30 13:39:26;;;;;;;2.80;0.30;;;7.20;99.90;;;;;;5024756;28;20120;-56
2022/12/30 13:41:54;;;;;;;6.43;0.60;;;7.10;99.90;;;;;;5024100;28;20650;-48
2022/12/30 13:44:21;;;;;;;3.55;0.75;;;7.20;99.90;;;;;;5024143;28;20053;-49
2022/12/30 13:46:50;;;;;;;4.32;0.30;;;7.10;99.90;;;;;;5006016;28;20096;-49
2022/12/30 13:49:26;;;;;;;4.22;0.30;;;7.70;99.90;;;;;;5024009;28;20049;-46
2022/12/30 13:52:00;;;;;;;1.80;0.20;;;7.20;99.90;;;;;;5024530;28;20171;-48
2022/12/30 13:54:28;;;;;;;5.30;0.30;;;7.80;99.90;;;;;;5024646;28;20108;-51
2022/12/30 13:56:58;;;;;;;1.48;0.43;;;6.90;99.90;;;;;;5024923;28;20045;-50
2022/12/30 13:59:36;;;;;;;3.78;0.50;;;7.20;99.90;;;;;;5024710;28;20053;-48
2022/12/30 14:02:31;;;;;;;5.32;0.60;;;7.20;99.90;;;;;;5024524;28;20044;-55
2022/12/30 14:04:57;;;;;;;5.10;0.82;;;7.20;99.90;;;;;;5023734;28;20499;-48
2022/12/30 14:07:38;;;;;;;4.07;0.45;;;7.30;99.90;;;;;;5022942;28;20050;-47
2022/12/30 14:10:17;;;;;;;3.60;0.50;;;7.40;99.90;;;;;;5024036;28;20104;-46